Time;durP1;ratioP1;P1;durP2;ratioP2;P2;SDS_P1;SDS_P2;PMS_P1;PMS_P2;Temp;Humidity;BMP_temperature;BMP_pressure;BME280_temperature;BME280_humidity;BME280_pressure;Samples;Min_cycle;Max_cycle;Signal;HPM_P1;HPM_P2
2021/03/17 00:02:07;;;;;;;22.40;14.90;;;;;;;3.95;82.43;99670.81;5077979;28;20049;-55
2021/03/17 00:04:51;;;;;;;29.13;16.45;;;;;;;3.95;82.73;99673.41;5076676;28;20044;-55
2021/03/17 00:07:35;;;;;;;25.40;15.77;;;;;;;3.86;83.08;99671.66;5062368;28;20117;-55
2021/03/17 00:10:20;;;;;;;20.27;14.73;;;;;;;3.90;83.08;99672.53;5076998;28;20131;-55
2021/03/17 00:13:05;;;;;;;24.77;16.15;;;;;;;3.94;83.04;99672.53;5076981;28;20064;-55
2021/03/17 00:15:49;;;;;;;27.30;16.38;;;;;;;3.94;82.98;99672.53;5076925;28;20037;-55
2021/03/17 00:18:34;;;;;;;24.77;15.45;;;;;;;3.87;83.03;99672.56;5076565;28;20460;-55
2021/03/17 00:21:18;;;;;;;20.90;14.32;;;;;;;3.97;82.95;99669.09;5076829;28;20055;-55
2021/03/17 00:24:03;;;;;;;21.58;14.80;;;;;;;3.93;83.03;99672.53;5076466;28;20070;-55
2021/03/17 00:26:47;;;;;;;25.58;14.38;;;;;;;3.93;82.88;99676.00;5076560;28;20118;-55
2021/03/17 00:29:31;;;;;;;22.40;14.90;;;;;;;3.91;82.80;99672.53;5076672;28;20040;-55
2021/03/17 00:32:15;;;;;;;22.73;14.73;;;;;;;3.80;83.13;99675.97;5075966;28;20052;-55
2021/03/17 00:35:00;;;;;;;19.52;13.40;;;;;;;3.78;83.58;99673.41;5076567;28;20044;-55
2021/03/17 00:37:44;;;;;;;21.08;13.07;;;;;;;3.85;83.64;99666.50;5076587;28;20044;-55
2021/03/17 00:40:29;;;;;;;21.63;13.38;;;;;;;3.88;83.29;99669.09;5076134;28;20048;-55
2021/03/17 00:43:13;;;;;;;21.27;13.63;;;;;;;3.89;83.28;99670.81;5076207;28;20453;-55
2021/03/17 00:45:57;;;;;;;19.95;13.70;;;;;;;3.95;82.69;99668.22;5076486;28;20063;-55
2021/03/17 00:48:27;;;;;;;21.38;15.13;;;;;;;3.91;82.85;99666.50;5076198;28;20048;-55
2021/03/17 00:51:00;;;;;;;23.02;14.73;;;;;;;3.80;83.04;99663.88;5076443;28;20048;-55
2021/03/17 00:53:44;;;;;;;22.17;15.02;;;;;;;3.87;83.07;99659.59;5076361;28;20066;-55
2021/03/17 00:56:11;;;;;;;22.17;14.75;;;;;;;3.91;82.87;99666.50;5075229;28;20388;-55
2021/03/17 00:58:41;;;;;;;25.17;14.93;;;;;;;3.89;82.81;99660.44;5059094;28;20062;-55
2021/03/17 01:01:06;;;;;;;24.60;14.07;;;;;;;3.90;83.14;99669.94;5075428;28;20131;-55
2021/03/17 01:03:32;;;;;;;22.58;16.10;;;;;;;3.91;82.96;99667.34;5058762;28;20417;-55
2021/03/17 01:05:58;;;;;;;20.25;14.25;;;;;;;3.91;83.06;99666.50;5075671;28;20065;-55
2021/03/17 01:08:24;;;;;;;23.15;15.43;;;;;;;3.87;83.29;99663.06;5075679;28;20418;-55
2021/03/17 01:10:49;;;;;;;20.33;14.75;;;;;;;3.84;83.64;99662.19;5076204;28;20063;-55
2021/03/17 01:13:15;;;;;;;21.73;14.10;;;;;;;3.88;83.50;99663.91;5076169;28;20330;-55
2021/03/17 01:15:43;;;;;;;24.13;15.00;;;;;;;3.98;83.12;99661.31;5075838;28;20037;-55
2021/03/17 01:18:09;;;;;;;21.45;14.40;;;;;;;3.95;83.14;99665.63;5076145;28;20059;-55
2021/03/17 01:20:35;;;;;;;24.17;14.57;;;;;;;3.94;83.30;99662.19;5076091;28;20052;-55
2021/03/17 01:23:01;;;;;;;23.13;15.20;;;;;;;3.91;83.58;99659.59;5076129;28;20452;-55
2021/03/17 01:25:37;;;;;;;24.70;16.55;;;;;;;3.96;83.40;99665.66;5075015;28;20051;-55
2021/03/17 01:28:04;;;;;;;26.92;15.93;;;;;;;4.03;83.62;99666.50;5076122;28;20135;-55
2021/03/17 01:30:50;;;;;;;22.25;14.85;;;;;;;4.05;82.82;99669.06;5076056;28;20456;-55
2021/03/17 01:33:16;;;;;;;26.77;16.00;;;;;;;4.02;83.42;99661.31;5076024;28;20053;-55
2021/03/17 01:35:43;;;;;;;26.73;16.13;;;;;;;4.03;82.94;99657.84;5074764;28;20488;-55
2021/03/17 01:38:09;;;;;;;25.33;15.82;;;;;;;3.97;83.51;99656.13;5075713;28;20095;-55
2021/03/17 01:40:37;;;;;;;26.45;16.25;;;;;;;4.01;83.22;99659.59;5075069;28;20052;-54
2021/03/17 01:43:02;;;;;;;22.45;16.30;;;;;;;4.03;83.33;99663.91;5075924;28;20044;-55
2021/03/17 01:45:28;;;;;;;26.73;16.67;;;;;;;3.88;83.62;99659.59;5076181;28;20055;-55
2021/03/17 01:47:54;;;;;;;24.38;16.77;;;;;;;3.91;83.59;99661.31;5075315;28;20044;-55
2021/03/17 01:50:28;;;;;;;24.45;16.05;;;;;;;4.00;83.75;99653.53;5074972;28;20052;-55
2021/03/17 01:52:54;;;;;;;26.08;16.65;;;;;;;4.01;83.46;99660.44;5075857;28;20048;-55
2021/03/17 01:55:20;;;;;;;27.77;17.58;;;;;;;3.98;83.66;99656.13;5075390;28;20453;-56
2021/03/17 01:57:46;;;;;;;25.70;16.42;;;;;;;4.02;83.76;99662.16;5075733;28;20063;-55
2021/03/17 02:00:13;;;;;;;26.02;16.83;;;;;;;4.01;83.66;99665.63;5075722;28;20060;-55
2021/03/17 02:02:40;;;;;;;26.83;17.15;;;;;;;4.01;83.81;99654.41;5075695;28;20128;-54
2021/03/17 02:05:13;;;;;;;26.40;17.70;;;;;;;3.88;84.22;99657.00;5075688;28;20049;-55
2021/03/17 02:07:39;;;;;;;25.88;17.05;;;;;;;3.94;84.40;99653.53;5075725;28;20131;-55
2021/03/17 02:10:10;;;;;;;24.42;16.73;;;;;;;3.95;84.18;99656.13;5075597;28;20063;-55
2021/03/17 02:12:48;;;;;;;29.08;16.83;;;;;;;3.98;84.20;99656.13;5075425;28;20330;-55
2021/03/17 02:15:28;;;;;;;31.70;18.80;;;;;;;3.95;84.25;99657.84;5074670;28;20048;-55
2021/03/17 02:17:57;;;;;;;33.13;19.23;;;;;;;3.94;84.87;99657.00;5077743;28;20048;-55
2021/03/17 02:20:48;;;;;;;25.25;16.73;;;;;;;4.11;84.34;99659.56;5061684;28;20048;-55
2021/03/17 02:23:18;;;;;;;27.80;17.67;;;;;;;4.06;84.08;99655.25;5079110;28;20075;-55
2021/03/17 02:25:49;;;;;;;26.42;17.17;;;;;;;4.01;84.72;99657.84;5061533;28;20040;-55
2021/03/17 02:28:45;;;;;;;27.50;16.95;;;;;;;4.02;83.99;99658.72;5079037;28;20053;-55
2021/03/17 02:31:49;;;;;;;31.85;18.20;;;;;;;4.03;84.08;99655.25;5078558;28;20052;-55
2021/03/17 02:34:15;;;;;;;29.00;17.50;;;;;;;3.98;84.49;99658.72;5078835;28;20037;-55
2021/03/17 02:36:56;;;;;;;30.55;18.88;;;;;;;4.09;83.86;99650.91;5044639;28;20040;-54
2021/03/17 02:39:27;;;;;;;27.83;17.90;;;;;;;4.07;83.97;99657.00;5078729;28;20119;-55
2021/03/17 02:42:05;;;;;;;28.45;17.58;;;;;;;4.00;84.15;99653.53;5077915;28;20357;-55
2021/03/17 02:44:31;;;;;;;27.95;17.60;;;;;;;3.93;84.05;99647.50;5078456;28;20127;-55
2021/03/17 02:46:59;;;;;;;25.83;17.38;;;;;;;4.02;83.83;99649.19;5061045;28;20051;-55
2021/03/17 02:49:27;;;;;;;23.63;16.27;;;;;;;4.09;83.93;99639.69;5061133;28;20071;-55
2021/03/17 02:51:55;;;;;;;25.30;16.35;;;;;;;4.20;83.03;99649.19;5077694;28;20048;-55
2021/03/17 02:54:22;;;;;;;26.48;16.27;;;;;;;4.12;82.84;99643.13;5077351;28;20040;-55
2021/03/17 02:57:02;;;;;;;26.38;16.50;;;;;;;4.12;82.78;99639.69;5077355;28;20048;-54
2021/03/17 02:59:30;;;;;;;24.23;15.77;;;;;;;4.12;82.92;99637.94;5077600;28;20052;-55
2021/03/17 03:01:57;;;;;;;25.73;15.00;;;;;;;4.12;82.46;99631.91;5078348;28;20049;-55
2021/03/17 03:04:23;;;;;;;26.67;17.67;;;;;;;3.94;83.14;99641.44;5060682;28;20116;-55
2021/03/17 03:06:49;;;;;;;23.48;15.52;;;;;;;3.95;83.39;99640.56;5076975;28;20087;-55
2021/03/17 03:09:16;;;;;;;25.75;16.77;;;;;;;3.97;83.35;99641.44;5043789;28;20052;-55
2021/03/17 03:11:42;;;;;;;22.70;16.23;;;;;;;3.95;83.18;99643.16;5060662;28;20111;-55
2021/03/17 03:14:07;;;;;;;23.92;15.50;;;;;;;3.92;83.27;99650.06;5060606;28;20066;-55
2021/03/17 03:16:33;;;;;;;24.00;15.90;;;;;;;4.04;82.96;99647.47;5077785;28;20395;-55
2021/03/17 03:19:00;;;;;;;23.45;16.65;;;;;;;4.12;82.58;99645.72;5076898;28;20048;-55
2021/03/17 03:21:26;;;;;;;24.98;16.92;;;;;;;4.09;82.54;99644.88;5078003;28;20129;-55
2021/03/17 03:23:52;;;;;;;28.13;17.08;;;;;;;4.19;82.30;99646.56;5060208;28;20376;-55
2021/03/17 03:26:18;;;;;;;29.73;19.35;;;;;;;4.25;81.32;99649.16;5077020;28;20059;-55
2021/03/17 03:28:45;;;;;;;28.65;18.05;;;;;;;4.17;81.61;99654.38;5076893;28;20127;-55
2021/03/17 03:31:11;;;;;;;26.33;16.15;;;;;;;4.21;82.33;99660.41;5076941;28;20068;-55
2021/03/17 03:33:36;;;;;;;28.27;17.13;;;;;;;4.17;82.07;99649.19;5077280;28;20483;-55
2021/03/17 03:36:02;;;;;;;28.63;19.25;;;;;;;4.07;82.19;99655.25;5076600;28;20040;-55
2021/03/17 03:38:28;;;;;;;32.22;19.73;;;;;;;4.16;82.34;99655.25;5077625;28;20075;-55
2021/03/17 03:40:54;;;;;;;33.25;21.75;;;;;;;4.17;82.00;99661.28;5076394;28;20059;-55
2021/03/17 03:43:20;;;;;;;35.97;21.20;;;;;;;4.21;81.76;99655.22;5076670;28;20052;-55
2021/03/17 03:45:46;;;;;;;37.35;22.65;;;;;;;4.16;81.94;99659.53;5076634;28;20407;-56
2021/03/17 03:48:11;;;;;;;33.95;22.17;;;;;;;4.01;82.30;99657.00;5076580;28;20044;-55
2021/03/17 03:50:40;;;;;;;33.35;22.85;;;;;;;4.15;82.54;99669.06;5077145;28;20409;-55
2021/03/17 03:53:10;;;;;;;35.60;22.40;;;;;;;4.12;82.22;99663.00;5077335;28;20059;-55
2021/03/17 03:55:58;;;;;;;33.60;22.30;;;;;;;4.16;82.41;99656.94;5076390;28;20074;-55
2021/03/17 03:58:30;;;;;;;38.20;23.48;;;;;;;4.17;82.23;99663.88;5076979;28;20358;-55
2021/03/17 04:01:00;;;;;;;41.45;26.55;;;;;;;4.14;82.21;99667.34;5076985;28;20402;-55
2021/03/17 04:03:25;;;;;;;40.80;26.40;;;;;;;4.14;82.38;99667.34;5077168;28;20071;-55
2021/03/17 04:05:52;;;;;;;45.60;27.92;;;;;;;4.12;82.34;99660.41;5059065;28;20052;-55
2021/03/17 04:08:18;;;;;;;44.17;27.67;;;;;;;4.18;81.94;99663.88;5059658;28;20393;-55
2021/03/17 04:10:45;;;;;;;47.17;28.17;;;;;;;4.13;82.10;99672.53;5059219;28;20451;-55
2021/03/17 04:13:11;;;;;;;48.95;30.63;;;;;;;4.02;82.02;99672.53;5076729;28;20040;-55
2021/03/17 04:15:37;;;;;;;52.83;30.70;;;;;;;3.90;82.43;99673.41;5076509;28;20082;-55
2021/03/17 04:18:06;;;;;;;60.08;35.60;;;;;;;4.03;82.27;99674.28;5076333;28;20041;-56
2021/03/17 04:20:36;;;;;;;50.70;31.25;;;;;;;3.96;81.71;99675.13;5059403;28;20102;-55
2021/03/17 04:23:03;;;;;;;54.85;30.55;;;;;;;3.95;82.26;99678.59;5075927;28;20048;-55
2021/03/17 04:25:28;;;;;;;49.78;30.83;;;;;;;3.84;82.14;99673.41;5075890;28;20411;-55
2021/03/17 04:27:54;;;;;;;47.50;29.40;;;;;;;3.90;81.93;99672.53;5075843;28;20052;-54
2021/03/17 04:30:21;;;;;;;46.97;28.88;;;;;;;3.87;81.83;99682.91;5075515;28;20048;-54
2021/03/17 04:32:48;;;;;;;51.25;29.67;;;;;;;3.80;81.68;99678.56;5042665;28;20056;-54
2021/03/17 04:35:15;;;;;;;51.75;29.20;;;;;;;3.72;81.95;99676.84;5075439;28;20062;-55
2021/03/17 04:37:42;;;;;;;50.10;29.23;;;;;;;3.79;81.92;99669.94;5075455;28;20040;-55
2021/03/17 04:40:08;;;;;;;50.17;30.35;;;;;;;3.78;81.59;99668.22;5075095;28;20048;-55
2021/03/17 04:42:34;;;;;;;53.40;31.02;;;;;;;3.74;81.32;99675.13;5075586;28;20044;-55
2021/03/17 04:45:00;;;;;;;49.60;29.95;;;;;;;3.69;81.73;99676.00;5075637;28;20059;-55
2021/03/17 04:47:26;;;;;;;51.53;30.52;;;;;;;3.61;81.90;99681.19;5058992;28;20063;-55
2021/03/17 04:49:51;;;;;;;49.05;27.92;;;;;;;3.70;81.81;99678.56;5076487;28;20044;-54
2021/03/17 04:52:18;;;;;;;51.08;30.73;;;;;;;3.66;82.06;99687.22;5075230;28;20049;-55
2021/03/17 04:54:43;;;;;;;55.20;29.80;;;;;;;3.67;82.05;99681.19;5076069;28;20051;-55
2021/03/17 04:57:12;;;;;;;50.97;30.55;;;;;;;3.77;81.77;99689.81;5075204;28;20049;-55
2021/03/17 04:59:37;;;;;;;59.53;31.38;;;;;;;3.72;81.70;99687.22;5042076;28;20056;-55
2021/03/17 05:02:03;;;;;;;58.17;30.92;;;;;;;3.74;81.77;99682.91;5075176;28;20131;-55
2021/03/17 05:04:30;;;;;;;56.88;31.85;;;;;;;3.73;81.43;99688.06;5076055;28;20044;-55
2021/03/17 05:06:56;;;;;;;55.75;32.38;;;;;;;3.68;81.90;99695.00;5074959;28;20060;-54
2021/03/17 05:09:21;;;;;;;57.63;31.27;;;;;;;3.76;81.72;99690.66;5058719;28;20040;-55
2021/03/17 05:11:47;;;;;;;56.20;31.60;;;;;;;3.71;81.52;99690.69;5058450;28;20352;-55
2021/03/17 05:14:13;;;;;;;55.35;31.83;;;;;;;3.76;81.65;99701.03;5075243;28;20056;-54
2021/03/17 05:16:39;;;;;;;68.47;37.75;;;;;;;3.78;81.73;99701.06;5075307;28;20044;-54
2021/03/17 05:19:05;;;;;;;54.67;33.28;;;;;;;3.83;81.58;99697.56;5076124;28;20125;-55
2021/03/17 05:21:32;;;;;;;55.72;31.50;;;;;;;3.83;81.47;99699.31;5074960;28;20052;-55
2021/03/17 05:23:58;;;;;;;49.45;30.65;;;;;;;3.86;81.15;99694.13;5075017;28;20326;-55
2021/03/17 05:26:24;;;;;;;54.80;30.35;;;;;;;3.91;81.43;99695.88;5075786;28;20434;-54
2021/03/17 05:28:49;;;;;;;51.13;29.00;;;;;;;3.85;81.38;99707.97;5075836;28;20048;-55
2021/03/17 05:31:16;;;;;;;49.08;27.95;;;;;;;3.84;81.61;99707.09;5058176;28;20433;-55
2021/03/17 05:33:42;;;;;;;60.15;33.05;;;;;;;3.73;81.76;99706.22;5058201;28;20078;-54
2021/03/17 05:36:08;;;;;;;60.60;33.63;;;;;;;3.72;82.18;99712.25;5058871;28;20124;-55
2021/03/17 05:38:34;;;;;;;60.50;34.33;;;;;;;3.86;81.95;99713.13;5075742;28;20114;-55
2021/03/17 05:41:00;;;;;;;58.20;32.70;;;;;;;3.89;81.61;99709.69;5075933;28;20438;-55
2021/03/17 05:43:25;;;;;;;62.92;35.40;;;;;;;3.83;81.58;99712.25;5074824;28;20049;-55
2021/03/17 05:45:51;;;;;;;65.68;34.95;;;;;;;3.87;81.65;99721.78;5058196;28;20078;-54
2021/03/17 05:48:17;;;;;;;71.45;36.00;;;;;;;3.67;82.15;99712.28;5074659;28;20056;-55
2021/03/17 05:50:43;;;;;;;68.07;35.85;;;;;;;3.74;82.04;99706.22;5074655;28;20060;-55
2021/03/17 05:53:09;;;;;;;65.55;34.88;;;;;;;3.80;81.90;99713.13;5079142;28;20033;-55
2021/03/17 05:55:36;;;;;;;68.45;34.17;;;;;;;3.81;81.50;99717.47;5078415;28;20498;-55
2021/03/17 05:58:02;;;;;;;66.88;36.22;;;;;;;3.84;81.41;99716.59;5079529;28;20129;-55
2021/03/17 06:00:27;;;;;;;62.38;33.17;;;;;;;3.83;81.30;99726.06;5079466;28;20045;-54
2021/03/17 06:02:53;;;;;;;54.33;30.80;;;;;;;3.74;81.20;99736.47;5079218;28;20051;-54
2021/03/17 06:05:20;;;;;;;58.58;31.75;;;;;;;3.74;81.19;99729.53;5061547;28;20052;-55
2021/03/17 06:07:51;;;;;;;56.72;30.58;;;;;;;3.73;80.92;99732.97;5079737;28;20365;-54
2021/03/17 06:10:18;;;;;;;56.63;32.13;;;;;;;3.82;81.38;99734.72;5079136;28;20399;-55
2021/03/17 06:12:46;;;;;;;60.80;33.83;;;;;;;3.92;81.01;99744.22;5078480;28;20094;-56
2021/03/17 06:15:12;;;;;;;72.25;40.15;;;;;;;3.92;80.82;99740.78;5078306;28;20053;-55
2021/03/17 06:17:38;;;;;;;65.78;36.53;;;;;;;3.92;80.81;99743.38;5061457;28;20472;-54
2021/03/17 06:20:06;;;;;;;74.85;39.38;;;;;;;3.88;80.84;99744.25;5078034;28;20044;-55
2021/03/17 06:22:36;;;;;;;61.10;32.13;;;;;;;3.93;80.85;99740.78;5079109;28;20131;-55
2021/03/17 06:25:03;;;;;;;83.35;41.63;;;;;;;4.01;80.52;99742.53;5078106;28;20045;-55
2021/03/17 06:27:29;;;;;;;72.00;38.67;;;;;;;3.89;80.93;99748.53;5061381;28;20080;-55
2021/03/17 06:29:56;;;;;;;79.88;40.15;;;;;;;3.90;81.18;99747.69;5078995;28;20064;-55
2021/03/17 06:32:22;;;;;;;76.97;40.35;;;;;;;3.74;81.51;99749.41;5078079;28;20048;-55
2021/03/17 06:34:49;;;;;;;80.82;39.80;;;;;;;3.75;82.20;99758.91;5077976;28;20375;-55
2021/03/17 06:37:15;;;;;;;82.13;39.40;;;;;;;3.85;81.98;99755.47;5078813;28;20048;-55
2021/03/17 06:39:40;;;;;;;72.60;35.47;;;;;;;3.89;81.30;99759.78;5078782;28;20483;-55
2021/03/17 06:42:06;;;;;;;75.75;37.83;;;;;;;3.92;81.22;99754.59;5078742;28;20061;-55
2021/03/17 06:44:32;;;;;;;71.88;36.60;;;;;;;3.86;81.46;99759.75;5077546;28;20074;-55
2021/03/17 06:47:18;;;;;;;89.00;39.55;;;;;;;4.05;81.17;99767.56;5077770;28;20041;-55
2021/03/17 06:49:48;;;;;;;76.93;39.58;;;;;;;4.12;79.93;99771.88;5061314;28;20190;-55
2021/03/17 06:52:29;;;;;;;72.45;36.45;;;;;;;3.83;81.06;99769.25;5061676;28;20052;-55
2021/03/17 06:55:17;;;;;;;74.85;37.53;;;;;;;3.97;80.48;99772.75;5078498;28;20049;-55
2021/03/17 06:57:53;;;;;;;72.35;35.58;;;;;;;3.92;80.73;99771.88;5061087;28;20059;-55
2021/03/17 07:00:35;;;;;;;77.68;36.67;;;;;;;3.89;80.77;99782.22;5044443;28;20036;-55
2021/03/17 07:03:13;;;;;;;82.90;41.17;;;;;;;3.87;80.11;99779.66;5060583;28;20052;-55
2021/03/17 07:05:44;;;;;;;88.53;41.05;;;;;;;3.85;80.88;99780.50;5078039;28;20334;-55
2021/03/17 07:08:14;;;;;;;93.32;43.67;;;;;;;3.89;80.72;99784.81;5078198;28;20044;-55
2021/03/17 07:10:44;;;;;;;96.35;50.17;;;;;;;3.88;81.11;99775.34;5078037;28;20040;-55
2021/03/17 07:13:13;;;;;;;102.43;50.05;;;;;;;3.85;81.05;99778.78;5077082;28;20041;-55
2021/03/17 07:15:39;;;;;;;104.03;48.05;;;;;;;3.83;81.22;99772.72;5077196;28;20071;-55
2021/03/17 07:18:21;;;;;;;108.30;51.10;;;;;;;3.88;81.56;99788.28;5077551;28;20409;-55
2021/03/17 07:21:00;;;;;;;124.70;61.27;;;;;;;3.99;81.75;99792.59;5077827;28;20052;-55
2021/03/17 07:23:28;;;;;;;131.10;64.10;;;;;;;4.20;81.47;99791.78;5077170;28;20049;-55
2021/03/17 07:26:03;;;;;;;94.65;45.30;;;;;;;4.24;79.95;99800.41;5060306;28;20048;-55
2021/03/17 07:28:49;;;;;;;97.38;43.72;;;;;;;4.34;79.16;99798.69;5077750;28;20044;-55
2021/03/17 07:31:35;;;;;;;137.20;69.97;;;;;;;3.81;78.17;99800.38;5077135;28;20341;-55
2021/03/17 07:34:20;;;;;;;102.90;50.38;;;;;;;3.94;78.03;99801.25;5077694;28;20048;-55
2021/03/17 07:36:53;;;;;;;86.30;44.08;;;;;;;4.01;78.51;99812.50;5077723;28;20467;-55
2021/03/17 07:39:26;;;;;;;96.65;50.55;;;;;;;4.02;77.78;99803.84;5076830;28;20048;-55
2021/03/17 07:41:55;;;;;;;79.03;42.17;;;;;;;3.86;77.54;99805.56;5044403;28;20319;-55
2021/03/17 07:44:21;;;;;;;75.97;41.10;;;;;;;3.84;76.54;99810.75;5077003;28;20044;-55
2021/03/17 07:46:48;;;;;;;85.30;42.78;;;;;;;3.79;77.22;99820.22;5060100;28;20113;-55
2021/03/17 07:49:14;;;;;;;83.10;41.63;;;;;;;3.87;76.71;99823.72;5077166;28;20437;-55
2021/03/17 07:51:43;;;;;;;77.53;40.60;;;;;;;3.68;76.79;99820.19;5077384;28;20106;-55
2021/03/17 07:54:09;;;;;;;82.18;42.35;;;;;;;3.60;77.02;99818.44;5077284;28;20095;-55
2021/03/17 07:56:37;;;;;;;71.35;39.97;;;;;;;3.55;77.31;99825.34;5059571;28;20445;-55
2021/03/17 07:59:03;;;;;;;83.00;42.15;;;;;;;3.53;77.20;99825.31;5059923;28;20048;-55
2021/03/17 08:01:28;;;;;;;83.97;42.88;;;;;;;3.67;76.68;99823.66;5076083;28;20421;-55
2021/03/17 08:03:54;;;;;;;80.50;42.00;;;;;;;3.43;77.69;99823.56;5076886;28;20116;-55
2021/03/17 08:06:20;;;;;;;77.40;40.65;;;;;;;3.56;77.76;99835.69;5075944;28;20063;-47
2021/03/17 08:08:48;;;;;;;76.80;39.67;;;;;;;3.38;78.25;99840.78;5076173;28;20056;-47
2021/03/17 08:11:18;;;;;;;85.72;43.45;;;;;;;3.30;77.90;99845.94;5076760;28;20051;-46
2021/03/17 08:13:48;;;;;;;104.43;49.80;;;;;;;3.27;78.18;99849.38;5076368;28;20060;-46
2021/03/17 08:16:17;;;;;;;98.97;45.85;;;;;;;3.22;78.45;99851.09;5076775;28;20044;-46
2021/03/17 08:18:44;;;;;;;89.50;45.22;;;;;;;3.07;79.84;99851.00;5075759;28;20119;-46
2021/03/17 08:21:10;;;;;;;95.88;46.35;;;;;;;2.99;80.36;99856.13;5076800;28;20090;-46
2021/03/17 08:23:50;;;;;;;112.05;53.42;;;;;;;3.06;79.76;99869.97;5059295;28;20353;-47
2021/03/17 08:26:19;;;;;;;97.47;45.47;;;;;;;3.00;79.92;99870.78;5084690;28;20146;-47
2021/03/17 08:28:55;;;;;;;106.35;49.33;;;;;;;2.85;79.64;99862.91;5096729;28;20040;-46
2021/03/17 08:31:36;;;;;;;83.40;39.80;;;;;;;2.77;80.13;99883.56;5096957;28;20056;-47
2021/03/17 08:34:19;;;;;;;75.47;35.65;;;;;;;2.75;79.91;99879.22;5096826;28;20130;-46
2021/03/17 08:36:52;;;;;;;82.80;40.40;;;;;;;2.65;79.80;99886.03;5094829;28;20063;-46
2021/03/17 08:39:33;;;;;;;181.18;109.70;;;;;;;2.53;79.69;99880.75;5093747;28;20044;-46
2021/03/17 08:42:06;;;;;;;74.53;36.05;;;;;;;2.19;81.00;99885.63;5094695;28;20059;-46
2021/03/17 08:44:52;;;;;;;72.07;35.03;;;;;;;2.16;81.82;99888.19;5093939;28;20052;-46
2021/03/17 08:47:29;;;;;;;75.47;36.35;;;;;;;2.23;81.66;99895.16;5093372;28;20054;-46
2021/03/17 08:50:21;;;;;;;81.75;34.63;;;;;;;2.17;81.27;99884.75;5094574;28;20036;-46
2021/03/17 08:52:48;;;;;;;72.73;34.30;;;;;;;2.01;82.42;99890.59;5091744;28;20089;-46
2021/03/17 08:55:39;;;;;;;57.92;30.77;;;;;;;1.95;83.38;99883.69;5096277;28;20044;-46
2021/03/17 08:58:08;;;;;;;62.20;30.70;;;;;;;2.26;83.54;99892.59;5096312;28;20044;-46
2021/03/17 09:00:56;;;;;;;53.45;27.38;;;;;;;2.57;82.43;99887.72;5096568;28;20484;-46
2021/03/17 09:03:31;;;;;;;49.88;27.30;;;;;;;2.92;80.60;99885.38;5096606;28;20056;-46
2021/03/17 09:06:11;;;;;;;39.17;22.30;;;;;;;3.63;79.66;99876.28;5096183;28;20056;-47
2021/03/17 09:08:57;;;;;;;41.90;20.88;;;;;;;4.03;76.79;99878.16;5096517;28;20368;-47
2021/03/17 09:11:29;;;;;;;30.60;17.45;;;;;;;4.37;74.88;99874.75;5096185;28;20563;-47
2021/03/17 09:13:56;;;;;;;30.95;17.42;;;;;;;4.72;72.51;99876.53;5096530;28;20044;-47
2021/03/17 09:16:21;;;;;;;33.30;18.42;;;;;;;5.16;73.23;99863.47;5095510;28;20059;-47
2021/03/17 09:19:02;;;;;;;25.02;14.45;;;;;;;5.57;68.65;99872.03;5096017;28;20063;-47
2021/03/17 09:21:29;;;;;;;24.77;14.02;;;;;;;6.20;69.44;99874.31;5095142;28;20052;-47
2021/03/17 09:23:55;;;;;;;29.58;14.68;;;;;;;5.77;64.41;99882.34;5095455;28;20043;-47
2021/03/17 09:26:26;;;;;;;24.90;14.15;;;;;;;6.08;65.42;99873.53;5097734;28;20046;-47
2021/03/17 09:28:51;;;;;;;37.33;19.02;;;;;;;6.05;65.06;99877.91;5100176;28;20105;-47
2021/03/17 09:31:17;;;;;;;24.25;12.27;;;;;;;5.58;63.06;99877.19;5100386;28;20052;-47
2021/03/17 09:33:43;;;;;;;18.25;10.98;;;;;;;5.40;62.32;99879.88;5100107;28;20356;-47
2021/03/17 09:36:13;;;;;;;19.40;10.73;;;;;;;5.28;63.19;99885.94;5099996;28;20326;-47
2021/03/17 09:38:41;;;;;;;23.90;12.60;;;;;;;4.99;64.21;99878.22;5099656;28;20044;-47
2021/03/17 09:41:15;;;;;;;22.77;12.93;;;;;;;5.09;65.42;99879.06;5100203;28;20448;-47
2021/03/17 09:43:43;;;;;;;16.55;10.48;;;;;;;5.38;64.59;99889.41;5082774;28;20051;-47
2021/03/17 09:46:32;;;;;;;20.73;12.85;;;;;;;5.65;63.93;99888.44;5100432;28;20047;-47
2021/03/17 09:49:15;;;;;;;25.73;14.65;;;;;;;5.50;63.67;99878.13;5100403;28;20044;-47
2021/03/17 09:51:41;;;;;;;22.58;11.75;;;;;;;5.45;64.50;99891.09;5084075;28;20132;-47
2021/03/17 09:54:11;;;;;;;23.10;12.73;;;;;;;5.69;64.97;99884.09;5099830;28;20043;-47
2021/03/17 09:56:46;;;;;;;27.85;16.63;;;;;;;5.49;65.01;99892.84;5099895;28;20138;-47
2021/03/17 09:59:25;;;;;;;25.02;14.07;;;;;;;5.69;65.23;99887.56;5099917;28;20051;-47
2021/03/17 10:01:57;;;;;;;20.85;12.75;;;;;;;5.83;63.93;99887.50;5099540;28;20115;-47
2021/03/17 10:04:45;;;;;;;21.35;12.65;;;;;;;5.63;62.88;99877.19;5098992;28;20063;-47
2021/03/17 10:07:12;;;;;;;24.17;15.77;;;;;;;5.84;63.77;99890.09;5099474;28;20052;-47
2021/03/17 10:09:38;;;;;;;24.80;14.23;;;;;;;5.72;63.04;99886.66;5099419;28;20066;-47
2021/03/17 10:12:13;;;;;;;24.50;12.95;;;;;;;5.52;64.24;99882.41;5099218;28;20047;-47
2021/03/17 10:14:43;;;;;;;18.40;11.68;;;;;;;5.87;64.69;99886.63;5082502;28;20052;-47
2021/03/17 10:17:09;;;;;;;22.30;13.05;;;;;;;6.09;64.00;99884.81;5099463;28;20101;-47
2021/03/17 10:19:35;;;;;;;29.15;15.38;;;;;;;6.13;63.23;99883.03;5099236;28;20043;-47
2021/03/17 10:22:01;;;;;;;23.35;13.30;;;;;;;6.09;62.40;99890.00;5099159;28;20048;-47
2021/03/17 10:24:36;;;;;;;21.95;12.93;;;;;;;6.26;62.11;99888.16;5099201;28;20044;-47
2021/03/17 10:27:02;;;;;;;39.42;23.75;;;;;;;6.48;60.82;99891.50;5088633;28;20047;-47
2021/03/17 10:29:28;;;;;;;169.45;81.88;;;;;;;6.49;60.42;99890.59;5095194;28;20337;-47
2021/03/17 10:31:55;;;;;;;36.45;19.23;;;;;;;6.58;60.57;99884.47;5093719;28;20062;-47
2021/03/17 10:34:26;;;;;;;21.88;12.45;;;;;;;6.45;59.66;99885.44;5060662;28;20040;-47
2021/03/17 10:36:53;;;;;;;73.22;35.80;;;;;;;6.50;59.71;99889.75;5059864;28;20102;-47
2021/03/17 10:39:27;;;;;;;546.22;240.60;;;;;;;6.52;57.55;99884.53;5078374;28;20048;-47
2021/03/17 10:41:52;;;;;;;834.97;387.55;;;;;;;6.50;57.20;99886.25;5044621;28;20421;-47
2021/03/17 10:44:20;;;;;;;774.40;351.98;;;;;;;6.38;57.63;99889.81;5077392;28;20044;-47
2021/03/17 10:47:01;;;;;;;174.85;71.70;;;;;;;6.32;59.03;99888.13;5079047;28;20478;-47
2021/03/17 10:49:28;;;;;;;22.25;12.65;;;;;;;6.40;58.30;99882.00;5078728;28;20065;-47
2021/03/17 10:51:54;;;;;;;29.50;15.85;;;;;;;6.37;58.48;99884.63;5078362;28;20131;-47
2021/03/17 10:54:35;;;;;;;40.47;19.52;;;;;;;6.33;57.86;99876.84;5077655;28;20040;-47
2021/03/17 10:57:01;;;;;;;28.88;18.83;;;;;;;6.59;57.98;99874.94;5077432;28;20040;-47
2021/03/17 10:59:37;;;;;;;26.10;15.13;;;;;;;6.53;58.46;99876.72;5077402;28;20051;-47
2021/03/17 11:02:18;;;;;;;71.78;36.60;;;;;;;6.13;59.72;99875.25;5078230;28;20368;-47
2021/03/17 11:05:03;;;;;;;19.85;11.75;;;;;;;6.70;58.21;99870.53;5078417;28;20041;-47
2021/03/17 11:07:46;;;;;;;20.00;12.63;;;;;;;6.87;55.53;99865.16;5078383;28;20071;-47
2021/03/17 11:10:39;;;;;;;23.45;12.77;;;;;;;7.16;56.22;99867.47;5078043;28;20049;-47
2021/03/17 11:13:15;;;;;;;20.70;12.10;;;;;;;7.13;54.91;99860.56;5077681;28;20056;-47
2021/03/17 11:16:08;;;;;;;107.72;48.97;;;;;;;6.99;55.42;99860.69;5077808;28;20449;-47
2021/03/17 11:18:36;;;;;;;27.52;14.43;;;;;;;6.85;57.10;99870.34;5077565;28;20461;-47
2021/03/17 11:21:07;;;;;;;24.35;12.50;;;;;;;6.97;55.96;99869.41;5077731;28;20495;-47
2021/03/17 11:23:37;;;;;;;86.55;39.05;;;;;;;6.74;56.86;99862.66;5077761;28;20398;-47
2021/03/17 11:26:04;;;;;;;34.65;17.35;;;;;;;6.73;56.62;99871.34;5044500;28;20055;-47
2021/03/17 11:28:32;;;;;;;46.08;25.42;;;;;;;6.83;55.90;99863.47;5077884;28;20067;-47
2021/03/17 11:31:00;;;;;;;16.27;10.70;;;;;;;6.52;55.73;99861.97;5076742;28;20045;-47
2021/03/17 11:33:26;;;;;;;16.23;11.30;;;;;;;6.55;56.81;99869.75;5060322;28;20121;-47
2021/03/17 11:35:53;;;;;;;129.73;59.70;;;;;;;6.59;57.22;99865.38;5076604;28;20044;-47
2021/03/17 11:38:19;;;;;;;170.10;78.93;;;;;;;6.76;56.76;99866.13;5059898;28;20433;-47
2021/03/17 11:40:45;;;;;;;808.90;433.40;;;;;;;6.77;56.49;99859.16;5077560;28;20040;-47
2021/03/17 11:43:16;;;;;;;47.00;26.90;;;;;;;6.81;56.92;99876.47;5077294;28;20194;-47